Observations for BERGAMO ORIO SERIO, Italy (LIME)

LIME 181450Z VRB04KT 9999 FEW055 SCT110 19/06 Q1024 NOSIG   
LIME 181420Z VRB06KT 9999 SCT110 19/06 Q1024 NOSIG  
LIME 181350Z VRB05KT 9999 SCT110 19/07 Q1024 NOSIG  
LIME 181320Z VRB05KT 9999 SCT110 20/07 Q1024 NOSIG  
LIME 181250Z VRB06KT 9999 SCT110 19/07 Q1024 NOSIG  
LIME 181220Z VRB06KT 9999 SCT110 19/06 Q1025 NOSIG  
LIME 181150Z 13007KT 090V190 9999 FEW060 SCT100 18/07 Q1025 NOSIG   
LIME 181120Z 15006KT 100V190 9999 FEW060 SCT100 18/06 Q1025 NOSIG   
LIME 181050Z 15007KT 120V180 9999 FEW060 SCT100 18/07 Q1025 NOSIG   
LIME 181020Z 14008KT 110V170 9999 FEW060 SCT100 17/07 Q1025 NOSIG   
LIME 180950Z 13008KT 090V170 9999 SCT100 17/07 Q1025 NOSIG  
LIME 180920Z 13009KT 110V170 CAVOK 17/07 Q1025 NOSIG
LIME 180850Z 12008KT CAVOK 17/08 Q1025 NOSIG
LIME 180820Z 10007KT 070V140 9999 SCT100 16/07 Q1025 NOSIG  
LIME 180750Z VRB02KT 9999 SCT100 16/07 Q1025 NOSIG  
LIME 180720Z VRB01KT 9999 SCT100 15/08 Q1024 NOSIG  
LIME 180650Z VRB02KT 9999 SCT100 13/09 Q1024 NOSIG  
LIME 180620Z VRB01KT 9999 SCT100 12/09 Q1024 NOSIG  
LIME 180550Z 36003KT 9999 SCT100 11/06 Q1024 NOSIG  
LIME 180520Z 03002KT 9999 SCT090 11/06 Q1023 NOSIG  
LIME 180450Z 02002KT 9999 SCT110 11/06 Q1023 NOSIG  
LIME 180420Z 36005KT 9999 BKN110 11/06 Q1023 NOSIG  
LIME 180350Z 01006KT 9999 BKN110 11/06 Q1023 NOSIG  
LIME 180320Z 35003KT 9999 BKN110 10/06 Q1023 NOSIG  
LIME 180250Z 03003KT 9999 BKN080 11/06 Q1023 NOSIG  
LIME 180220Z 36005KT 9999 BKN080 11/06 Q1023 NOSIG  
LIME 180150Z 01003KT 9999 SCT110 11/06 Q1022 NOSIG  
LIME 180120Z 02006KT CAVOK 11/06 Q1022 NOSIG
LIME 180050Z 01006KT CAVOK 10/06 Q1022 NOSIG
LIME 180020Z 01005KT CAVOK 10/06 Q1022 NOSIG
LIME 172350Z 01005KT CAVOK 11/06 Q1022 NOSIG
LIME 172320Z 36005KT CAVOK 11/06 Q1022 NOSIG
LIME 172250Z 01005KT CAVOK 11/06 Q1022 NOSIG
LIME 172220Z 01005KT CAVOK 11/06 Q1022 NOSIG
LIME 172150Z 01005KT CAVOK 11/06 Q1021 NOSIG
LIME 172120Z 01006KT CAVOK 11/06 Q1021 NOSIG
LIME 172050Z 36005KT CAVOK 13/06 Q1021 NOSIG
LIME 172020Z 01005KT CAVOK 13/07 Q1021 NOSIG
LIME 171950Z 01005KT CAVOK 13/06 Q1021 NOSIG
LIME 171920Z VRB03KT CAVOK 14/06 Q1020 NOSIG
LIME 171850Z VRB01KT CAVOK 14/06 Q1020 NOSIG
LIME 171820Z 15003KT 120V190 CAVOK 17/05 Q1020 NOSIG
LIME 171750Z 15005KT CAVOK 19/05 Q1019 NOSIG
LIME 171720Z 17005KT 9999 FEW090 19/04 Q1019 NOSIG  
LIME 171650Z 17006KT 150V220 9999 SCT070 20/05 Q1019 NOSIG  
LIME 171620Z 18005KT 130V220 9999 SCT070 20/05 Q1019 NOSIG  
LIME 171550Z 16005KT 110V240 9999 SCT060 21/04 Q1019 NOSIG  
LIME 171520Z 21005KT 150V260 9999 SCT060 21/03 Q1019 NOSIG  
LIME 171450Z 18005KT 140V250 9999 FEW060 21/07 Q1019 NOSIG  
LIME 171420Z 18005KT 140V250 9999 FEW060 21/05 Q1019 NOSIG